createdAt,value
2022-08-03T00:05:19.125Z,45.54
2022-08-03T00:25:22.965Z,47.74
2022-08-03T00:45:31.338Z,49.38
2022-08-03T01:05:58.778Z,48.99
2022-08-03T01:26:18.888Z,50.07
2022-08-03T01:46:25.933Z,51.24
2022-08-03T02:07:00.578Z,52.81
2022-08-03T02:26:59.576Z,54.13
2022-08-03T02:47:07.303Z,54.66
2022-08-03T03:07:15.776Z,54.71
2022-08-03T03:27:20.972Z,55.89
2022-08-03T03:47:32.631Z,56.27
2022-08-03T04:08:05.765Z,57.85
2022-08-03T04:28:30.530Z,58.06
2022-08-03T04:48:34.541Z,58.43
2022-08-03T05:08:41.203Z,58.64
2022-08-03T05:28:51.576Z,58.50
2022-08-03T05:48:54.973Z,58.64
2022-08-03T06:08:58.412Z,58.60
2022-08-03T06:29:03.917Z,57.38
2022-08-03T06:49:07.997Z,54.96
2022-08-03T07:09:11.834Z,53.03
2022-08-03T07:29:15.680Z,50.54
2022-08-03T07:49:19.575Z,49.72
2022-08-03T08:09:23.700Z,48.87
2022-08-03T08:29:27.511Z,46.91
2022-08-03T08:49:33.045Z,43.91
2022-08-03T09:10:11.646Z,27.53
2022-08-03T09:29:59.857Z,22.46
2022-08-03T09:50:08.897Z,18.72
2022-08-03T10:10:30.838Z,17.71
2022-08-03T10:30:36.840Z,18.59
2022-08-03T10:50:42.303Z,21.95
2022-08-03T11:10:46.235Z,28.31
2022-08-03T11:30:49.698Z,28.85
2022-08-03T11:50:53.201Z,31.34
2022-08-03T12:11:00.115Z,30.83
2022-08-03T12:31:09.538Z,30.46
2022-08-03T12:51:13.135Z,27.90
2022-08-03T13:11:55.546Z,26.36
2022-08-03T13:31:51.052Z,23.79
2022-08-03T13:51:54.762Z,23.51
2022-08-03T14:12:07.975Z,20.71
2022-08-03T14:32:13.452Z,21.68
2022-08-03T14:52:17.713Z,22.98
2022-08-03T15:12:21.648Z,22.82
2022-08-03T15:32:25.060Z,23.11
2022-08-03T15:52:29.665Z,22.31
2022-08-03T16:12:33.842Z,23.25
2022-08-03T16:32:40.055Z,22.83
2022-08-03T16:52:47.240Z,25.75
2022-08-03T17:12:51.101Z,26.24
2022-08-03T17:32:57.514Z,27.05
2022-08-03T17:53:15.616Z,29.01
2022-08-03T18:13:30.809Z,31.08
2022-08-03T18:34:19.599Z,31.92
2022-08-03T18:54:59.024Z,33.30
2022-08-03T19:14:59.238Z,33.95
2022-08-03T19:35:04.886Z,34.72
2022-08-03T19:55:18.353Z,47.43
2022-08-03T20:15:31.182Z,44.80
2022-08-03T20:35:35.220Z,45.69
2022-08-03T20:55:47.799Z,42.48
2022-08-03T21:16:13.888Z,41.74
2022-08-03T21:36:18.300Z,38.22
2022-08-03T21:56:22.428Z,36.27
2022-08-03T22:16:25.778Z,36.78
2022-08-03T22:36:33.890Z,37.04
2022-08-03T22:56:38.912Z,35.99
2022-08-03T23:16:44.245Z,37.96
2022-08-03T23:36:49.296Z,40.87
2022-08-03T23:57:01.965Z,41.27
